• Join FlightAware (Why Join?)
  • Login
  • US Flag 
10:19AM EST


 

Airport Tracker/Info


-or-


 

Live Flight TrackerFlight Track Log ✈ N960DL ✈ 23-Apr-2013 ✈ KATL - KBNA

Flight Track Log - Related Links

Times and Time Zones

All times are in EDT time to prevent confusion due to time zone crossing. See the N960DL flight status page for this flight to view local times or setup timezone preferences in your user account.

Time Position Orientation Groundspeed Altitude Reporting Facility
EDT Latitude Longitude Course Direction KTS MPH feet Rate Location/Type
03:45PM 33.6500 -84.4000 342° North 161 185 2,100  Level Atlanta TRACON
03:46PM 33.6500 -84.3167 90° East 254 292 4,300 2,640 Climbing Atlanta TRACON
03:47PM 33.6833 -84.2333 64° Northeast 282 325 7,700 2,820 Climbing Atlanta TRACON
03:48PM 33.8650 -84.5667 North  Level FlightAware Approximate
03:49PM 33.9660 -84.5996 342° North  Level FlightAware Approximate
03:49PM 33.7333 -84.1833 40° Northeast 305 351 10,000  Level Atlanta TRACON
03:49PM 33.8167 -84.1833 360° North 295 339 10,000  Level Atlanta TRACON
03:50PM 34.0661 -84.6396 342° North  Level FlightAware Approximate
03:51PM 34.1661 -84.6797 342° North  Level FlightAware Approximate
03:51PM 33.9000 -84.2333 334° Northwest 330 380 10,100  Level Atlanta TRACON
03:52PM 34.0294 -84.4047 312° West 380 437 15,200 2,580 Climbing Atlanta Center
03:53PM 34.1022 -84.5078 310° West 388 447 17,700 2,520 Climbing Atlanta Center
03:54PM 34.1750 -84.6039 312° West 419 482 20,300 2,400 Climbing Atlanta Center
03:55PM 34.2578 -84.7125 313° West 429 494 22,500 1,800 Climbing Atlanta Center
03:56PM 34.3658 -84.7989 327° Northwest 424 488 24,000 720 Climbing Atlanta Center
03:57PM 34.4678 -84.8753 328° Northwest 429 494 24,000  Level Atlanta Center
03:58PM 34.5547 -84.9392 329° Northwest 399 459 24,000  Level Atlanta Center
03:59PM 34.6378 -85.0031 328° Northwest 366 421 24,000  Level Atlanta Center
04:00PM 34.7083 -85.0569 328° Northwest 349 402 24,000  Level Atlanta Center
04:01PM 34.7914 -85.1239 327° Northwest 349 402 24,000  Level Atlanta Center
04:04PM 35.0189 -85.2961 328° Northwest 370 426 24,000  Level Memphis Center
04:05PM 35.0964 -85.3550 328° Northwest 375 432 24,000  Level Memphis Center
04:06PM 35.1806 -85.4311 324° Northwest 375 432 24,000  Level Memphis Center
04:07PM 35.2508 -85.5211 314° West 370 426 24,000  Level Memphis Center
04:08PM 35.3192 -85.6114 313° West 370 426 24,000 -300 Level Memphis Center
04:09PM 35.3892 -85.6989 314° West 365 420 23,400 -1,140 Descending Memphis Center
04:10PM 35.4550 -85.7894 312° West 359 413 21,800 300 Descending Memphis Center
04:11PM 35.5272 -85.8800 314° West 359 413 24,000 -2,040 Climbing Memphis Center
04:12PM 35.5994 -85.9783 312° West 365 420 17,800 -4,200 Descending Memphis Center
04:13PM 35.6761 -86.0789 313° West 375 432 15,600 -2,040 Descending Memphis Center
04:14PM 35.7439 -86.1700 313° West 370 426 13,800 -1,680 Descending Memphis Center
04:15PM 35.7983 -86.2442 312° West 357 411 12,300 -1,500 Descending Memphis Center
04:16PM 35.8550 -86.3181 313° West 315 362 10,800 -1,500 Descending Memphis Center
04:17PM 35.9094 -86.3897 313° West 295 339 9,400 -1,440 Descending Memphis Center
04:18PM 35.9617 -86.4589 313° West 282 325 8,000 -1,320 Descending Memphis Center
04:19PM 36.0097 -86.5261 311° West 272 313 6,800 -1,380 Descending Memphis Center
04:20PM 36.0614 -86.5800 320° Northwest 251 289 5,300 -1,140 Descending Memphis Center
04:21PM 36.1317 -86.5589 14° North 215 247 4,600 -600 Descending Memphis Center
04:22PM 36.1953 -86.5275 22° Northeast 229 264 4,200 -420 Descending Memphis Center
04:23PM 36.2550 -86.5017 19° North 234 269 3,800 -600 Descending Memphis Center
04:24PM 36.2933 -86.5281 331° Northwest 170 196 3,000 -540 Descending Memphis Center
04:26PM 36.2500 -86.6333 243° Southwest 161 185 2,100 -420 Descending Nashville TRACON